This is the latest recevied weather packets stored in our database for station/object DC0PP-10. If no packets are shown the sender has not sent any weather packets the latest 1 day(s).
| Time | Temp. | Humidity | Pressure | Rain* | Wind** | Luminosity | Snow |
|---|---|---|---|---|---|---|---|
| 1778086555 | 13.89° C | 96% | 1010 hPa | - | - | - | - |
| 1778082953 | 15° C | 90% | 1010 hPa | - | - | - | - |
| 1778081153 | 15° C | 88% | 1009.8 hPa | - | - | - | - |
| 1778079352 | 15.56° C | 87% | 1009.7 hPa | - | - | - | - |
| 1778078452 | 16.11° C | 87% | 1009.6 hPa | - | - | - | - |
| 1778077552 | 16.67° C | 83% | 1009.4 hPa | - | - | - | - |
| 1778073051 | 17.78° C | 79% | 1008.8 hPa | - | - | - | - |
| 1778072151 | 18.33° C | 76% | 1008.6 hPa | - | - | - | - |
| 1778068554 | 20.56° C | 57% | 1007.9 hPa | - | - | - | - |
| 1778067655 | 22.22° C | 54% | 1007.8 hPa | - | - | - | - |
| 1778066754 | 22.22° C | 56% | 1007.9 hPa | - | - | - | - |
| 1778065853 | 21.11° C | 56% | 1008.1 hPa | - | - | - | - |
| 1778064959 | 21.67° C | 57% | 1008.1 hPa | - | - | - | - |
| 1778058652 | 20.56° C | 61% | 1008.2 hPa | - | - | - | - |
| 1778053251 | 24.44° C | 47% | 1007.7 hPa | - | - | - | - |
| 1778050550 | 22.78° C | 53% | 1007.7 hPa | - | - | - | - |
| 1778046956 | 16.67° C | 80% | 1008.4 hPa | - | - | - | - |
| 1778046056 | 13.89° C | 91% | 1008.4 hPa | - | - | - | - |
| 1778045156 | 13.33° C | 96% | 1008.6 hPa | - | - | - | - |
| 1778044256 | 12.78° C | 98% | 1008.8 hPa | - | - | - | - |
| 1778042455 | 12.22° C | 100% | 1008.8 hPa | - | - | - | - |
| 1778041555 | 12.22° C | 100% | 1008.8 hPa | - | - | - | - |
| 1778040655 | 12.22° C | 100% | 1008.9 hPa | - | - | - | - |
| 1778039755 | 12.22° C | 100% | 1008.6 hPa | - | - | - | - |
| 1778038855 | 12.78° C | 100% | 1008.8 hPa | - | - | - | - |
* Rain since midnight (hover to see other rain measurements)
** Current wind speed in m/s (hover to see current wind gust speed)